Time;durP1;ratioP1;P1;durP2;ratioP2;P2;SDS_P1;SDS_P2;PMS_P1;PMS_P2;Temp;Humidity;BMP_temperature;BMP_pressure;BME280_temperature;BME280_humidity;BME280_pressure;Samples;Min_cycle;Max_cycle;Signal;HPM_P1;HPM_P2
2022/10/13 06:43:52;;;;;;;4.37;2.50;;;13.30;99.90;;;;;;6344976;22;20213;-67
2022/10/13 06:46:19;;;;;;;7.83;3.73;;;13.30;99.90;;;;;;6337665;22;20177;-67
2022/10/13 06:48:48;;;;;;;6.70;2.83;;;13.50;99.90;;;;;;6338658;22;20183;-67
2022/10/13 06:51:15;;;;;;;6.70;2.80;;;13.50;99.90;;;;;;6338739;22;20199;-67
2022/10/13 06:53:42;;;;;;;5.60;2.70;;;13.40;99.90;;;;;;6338993;22;20183;-67
2022/10/13 06:56:09;;;;;;;9.07;2.70;;;13.50;99.90;;;;;;6338259;22;20255;-67
2022/10/13 06:58:37;;;;;;;6.10;2.50;;;13.60;99.90;;;;;;6338395;22;20698;-69
2022/10/13 07:01:06;;;;;;;6.97;3.17;;;13.50;99.90;;;;;;6338635;22;20193;-69
2022/10/13 07:03:33;;;;;;;6.57;2.77;;;13.50;99.90;;;;;;6338676;22;20205;-69
2022/10/13 07:06:03;;;;;;;6.30;2.70;;;13.60;99.90;;;;;;6338845;22;20173;-68
2022/10/13 07:08:30;;;;;;;4.80;2.50;;;13.70;99.90;;;;;;6338369;22;20181;-68
2022/10/13 07:10:57;;;;;;;5.43;2.83;;;13.70;99.90;;;;;;6338399;22;20193;-67
2022/10/13 07:13:25;;;;;;;4.97;2.60;;;13.70;99.90;;;;;;6338591;22;20196;-68
2022/10/13 07:15:51;;;;;;;11.80;4.50;;;13.90;99.90;;;;;;6338537;22;20173;-67
2022/10/13 07:18:19;;;;;;;26.37;10.03;;;13.90;99.90;;;;;;6338489;22;20260;-68
2022/10/13 07:20:46;;;;;;;23.43;9.60;;;13.90;99.90;;;;;;6338567;22;20203;-68
2022/10/13 07:23:13;;;;;;;29.03;10.07;;;13.90;99.90;;;;;;6338577;22;20205;-67
2022/10/13 07:25:40;;;;;;;22.13;9.70;;;14.10;99.90;;;;;;6340692;22;20184;-67
2022/10/13 07:28:07;;;;;;;17.47;6.23;;;14.10;99.90;;;;;;6340644;22;20173;-68
2022/10/13 07:30:33;;;;;;;13.67;5.03;;;14.10;99.90;;;;;;6340091;22;20197;-69
2022/10/13 07:33:00;;;;;;;10.13;3.90;;;14.10;99.90;;;;;;6333755;22;20647;-68
2022/10/13 07:35:28;;;;;;;6.80;3.97;;;14.10;99.90;;;;;;6337569;22;20255;-68
2022/10/13 07:37:55;;;;;;;6.03;3.07;;;14.20;99.90;;;;;;6338120;22;20256;-68
2022/10/13 07:40:22;;;;;;;5.77;3.00;;;14.00;99.90;;;;;;6337957;22;20239;-67
2022/10/13 07:42:49;;;;;;;4.87;2.30;;;14.00;99.90;;;;;;6338443;22;20178;-67
2022/10/13 07:45:16;;;;;;;7.47;3.17;;;14.10;99.90;;;;;;6338177;22;20181;-67
2022/10/13 07:47:43;;;;;;;10.00;3.60;;;14.10;99.90;;;;;;6337962;22;20177;-69
2022/10/13 07:50:10;;;;;;;7.77;4.27;;;14.10;99.90;;;;;;6338367;22;20180;-68
2022/10/13 07:52:38;;;;;;;6.07;3.17;;;14.10;99.90;;;;;;6338632;22;20540;-68
2022/10/13 07:55:06;;;;;;;10.27;4.20;;;14.00;99.90;;;;;;6337827;22;20184;-67
2022/10/13 07:57:33;;;;;;;11.30;5.63;;;14.00;99.90;;;;;;6338791;22;20212;-68
2022/10/13 08:00:00;;;;;;;11.67;4.67;;;14.10;99.90;;;;;;6338134;22;20256;-70
2022/10/13 08:02:28;;;;;;;9.50;4.63;;;14.10;99.90;;;;;;6337336;22;20260;-68
2022/10/13 08:04:55;;;;;;;9.27;3.47;;;14.00;99.90;;;;;;6338470;22;20211;-68
2022/10/13 08:07:22;;;;;;;6.47;3.33;;;14.10;99.90;;;;;;6338460;22;20180;-69
2022/10/13 08:09:50;;;;;;;8.07;2.83;;;14.10;99.90;;;;;;6337860;22;20497;-69
2022/10/13 08:12:17;;;;;;;6.93;3.10;;;14.10;99.90;;;;;;6338162;22;20278;-68
2022/10/13 08:14:44;;;;;;;6.53;3.17;;;14.20;99.90;;;;;;6338888;22;20481;-68
2022/10/13 08:17:11;;;;;;;9.17;3.17;;;14.20;99.90;;;;;;6338921;22;20192;-68
2022/10/13 08:19:37;;;;;;;10.73;3.37;;;14.30;99.90;;;;;;6340408;22;20174;-68
2022/10/13 08:22:04;;;;;;;7.83;3.00;;;14.40;99.90;;;;;;6339550;22;20197;-68
2022/10/13 08:24:31;;;;;;;6.50;3.73;;;14.40;99.90;;;;;;6339847;22;20227;-68
2022/10/13 08:26:59;;;;;;;9.63;4.33;;;14.40;99.90;;;;;;6340095;22;20179;-68
2022/10/13 08:29:26;;;;;;;7.93;4.27;;;14.30;99.90;;;;;;6340079;22;20256;-70
2022/10/13 08:31:53;;;;;;;9.50;4.13;;;14.20;99.90;;;;;;6339673;22;20517;-67
2022/10/13 08:34:21;;;;;;;10.67;4.53;;;14.30;99.90;;;;;;6339780;22;20179;-68
2022/10/13 08:36:51;;;;;;;12.83;4.30;;;14.40;99.90;;;;;;6339839;22;20173;-68
2022/10/13 08:39:18;;;;;;;13.90;3.90;;;14.30;99.90;;;;;;6339700;22;20191;-68
2022/10/13 08:41:45;;;;;;;14.97;5.40;;;14.30;99.90;;;;;;6337900;22;20248;-71
2022/10/13 08:44:24;;;;;;;8.70;4.90;;;14.40;99.90;;;;;;6338768;22;20284;-71
2022/10/13 08:46:59;;;;;;;14.73;5.03;;;14.60;99.90;;;;;;6338832;22;20183;-72
2022/10/13 08:49:26;;;;;;;13.17;5.80;;;14.90;99.90;;;;;;6339407;22;20173;-72
2022/10/13 08:51:53;;;;;;;11.23;5.10;;;15.10;99.90;;;;;;6339158;22;20690;-72
2022/10/13 08:54:23;;;;;;;10.60;4.97;;;15.20;99.90;;;;;;6338786;22;20196;-71
2022/10/13 08:56:51;;;;;;;11.13;4.60;;;15.20;99.90;;;;;;6339134;22;20181;-72
2022/10/13 08:59:20;;;;;;;10.60;4.10;;;15.20;99.90;;;;;;6339149;22;20177;-72
2022/10/13 09:01:51;;;;;;;8.10;3.73;;;15.20;99.90;;;;;;6338494;22;20759;-71
2022/10/13 09:04:30;;;;;;;7.40;3.47;;;15.20;99.90;;;;;;6338591;22;20201;-69
2022/10/13 09:07:04;;;;;;;8.53;3.97;;;15.20;99.90;;;;;;6339069;22;20177;-68
2022/10/13 09:09:31;;;;;;;6.03;3.43;;;15.20;99.90;;;;;;6339584;22;20177;-69
2022/10/13 09:11:59;;;;;;;9.23;3.80;;;15.10;99.90;;;;;;6339421;22;20200;-69
2022/10/13 09:14:30;;;;;;;7.23;3.53;;;15.00;99.90;;;;;;6339362;22;20173;-69
2022/10/13 09:17:13;;;;;;;6.70;3.00;;;14.90;99.90;;;;;;6339144;22;20181;-68
2022/10/13 09:19:40;;;;;;;9.07;4.03;;;14.90;99.90;;;;;;6338445;22;20177;-69
2022/10/13 09:22:19;;;;;;;5.60;2.93;;;15.10;99.90;;;;;;6338443;22;20669;-69
2022/10/13 09:24:46;;;;;;;8.37;3.63;;;15.20;99.90;;;;;;6339261;22;20234;-69
2022/10/13 09:27:15;;;;;;;7.73;3.30;;;15.30;99.90;;;;;;6339319;22;20180;-69
2022/10/13 09:29:45;;;;;;;9.53;3.87;;;15.20;99.90;;;;;;6339257;22;20211;-70
2022/10/13 09:32:17;;;;;;;10.33;3.80;;;15.20;99.90;;;;;;6339198;22;20228;-70
2022/10/13 09:34:44;;;;;;;7.77;3.87;;;15.10;99.90;;;;;;6339299;22;20200;-69
2022/10/13 09:37:19;;;;;;;13.70;4.30;;;15.10;99.90;;;;;;6338642;22;20706;-68
2022/10/13 09:39:46;;;;;;;10.27;4.47;;;15.20;99.90;;;;;;6339232;22;20172;-68
2022/10/13 09:42:23;;;;;;;9.47;3.83;;;15.20;99.90;;;;;;6338580;22;20722;-69
2022/10/13 09:44:59;;;;;;;11.20;4.07;;;15.20;99.90;;;;;;6338370;22;20204;-69
2022/10/13 09:47:29;;;;;;;8.43;3.77;;;15.20;99.90;;;;;;6339260;22;20199;-69
2022/10/13 09:50:02;;;;;;;10.70;4.53;;;15.40;99.90;;;;;;6339267;22;20173;-69
2022/10/13 09:52:29;;;;;;;9.37;4.23;;;15.40;99.90;;;;;;6339622;22;20173;-69
2022/10/13 09:54:59;;;;;;;8.53;3.47;;;15.40;99.90;;;;;;6338964;22;20260;-69
2022/10/13 09:57:33;;;;;;;8.07;3.70;;;15.30;99.90;;;;;;6338607;22;20177;-69
2022/10/13 10:00:18;;;;;;;11.37;3.60;;;15.30;99.90;;;;;;6338692;22;20180;-71
2022/10/13 10:02:51;;;;;;;7.97;3.70;;;15.30;99.90;;;;;;6339090;22;20173;-70
2022/10/13 10:05:24;;;;;;;8.87;4.13;;;15.50;99.90;;;;;;6338915;22;20204;-71
2022/10/13 10:07:52;;;;;;;7.53;3.23;;;15.70;99.90;;;;;;6339084;22;20177;-71
2022/10/13 10:10:30;;;;;;;4.90;2.90;;;15.60;99.90;;;;;;6338763;22;20483;-69
2022/10/13 10:12:57;;;;;;;6.93;3.40;;;15.70;99.90;;;;;;6338836;22;20177;-71
2022/10/13 10:15:32;;;;;;;4.60;2.40;;;16.00;99.90;;;;;;6338940;22;20257;-72
2022/10/13 10:18:03;;;;;;;5.57;3.07;;;16.30;99.90;;;;;;6338918;22;20172;-72
2022/10/13 10:20:50;;;;;;;6.27;2.60;;;16.50;99.90;;;;;;6338308;22;20197;-72
2022/10/13 10:23:22;;;;;;;5.60;2.53;;;16.60;99.90;;;;;;6338895;22;20260;-72
2022/10/13 10:25:53;;;;;;;4.60;2.53;;;16.70;99.90;;;;;;6338848;22;20184;-70
2022/10/13 10:28:47;;;;;;;4.00;2.50;;;16.70;99.90;;;;;;6338699;22;20260;-70
2022/10/13 10:31:24;;;;;;;4.73;2.60;;;16.50;99.90;;;;;;6338826;22;20193;-72
2022/10/13 10:34:02;;;;;;;5.60;2.40;;;16.50;99.90;;;;;;6338099;22;20624;-71
2022/10/13 10:36:40;;;;;;;5.60;2.20;;;16.50;99.90;;;;;;6338493;22;20275;-72
2022/10/13 10:39:18;;;;;;;7.03;2.40;;;16.30;99.90;;;;;;6338973;22;20637;-72
2022/10/13 10:41:53;;;;;;;5.53;2.50;;;16.00;99.90;;;;;;6338599;22;20490;-72
2022/10/13 10:44:25;;;;;;;5.50;2.80;;;15.70;99.90;;;;;;6338348;22;20200;-71
2022/10/13 10:46:59;;;;;;;4.30;2.70;;;15.60;99.90;;;;;;6338382;22;20178;-72
2022/10/13 10:49:30;;;;;;;4.93;2.77;;;15.60;99.90;;;;;;6338800;22;20173;-72
2022/10/13 10:51:57;;;;;;;6.13;3.27;;;15.40;99.90;;;;;;6338062;22;20676;-72
2022/10/13 10:54:34;;;;;;;6.13;2.67;;;15.30;99.90;;;;;;6338411;22;20173;-71
2022/10/13 10:57:08;;;;;;;7.30;3.20;;;15.30;99.90;;;;;;6338422;22;20173;-69
2022/10/13 10:59:50;;;;;;;5.57;3.30;;;15.30;99.90;;;;;;6339920;22;20172;-72
2022/10/13 11:02:37;;;;;;;8.33;3.10;;;15.30;99.90;;;;;;6340148;22;20649;-71
2022/10/13 11:05:04;;;;;;;4.80;2.67;;;15.30;99.90;;;;;;6340519;22;20239;-72
2022/10/13 11:07:56;;;;;;;6.47;3.57;;;15.40;99.90;;;;;;6340473;22;20173;-70
2022/10/13 11:10:25;;;;;;;7.93;3.70;;;15.40;99.90;;;;;;6319388;22;20297;-69
2022/10/13 11:13:25;;;;;;;6.30;3.27;;;15.40;99.90;;;;;;6338164;22;20209;-69
2022/10/13 11:15:52;;;;;;;5.60;2.93;;;15.30;99.90;;;;;;6340072;22;20181;-70
2022/10/13 11:19:05;;;;;;;6.93;3.20;;;15.20;99.90;;;;;;6339766;22;20691;-70
2022/10/13 11:22:20;;;;;;;7.53;3.30;;;15.10;99.90;;;;;;6340506;22;20193;-68
2022/10/13 11:25:28;;;;;;;5.63;3.27;;;15.20;99.90;;;;;;6339927;22;20677;-68
2022/10/13 11:27:55;;;;;;;7.33;2.90;;;15.10;99.90;;;;;;6340127;22;20179;-68
2022/10/13 11:30:48;;;;;;;5.37;3.07;;;15.10;99.90;;;;;;6340159;22;20287;-72
2022/10/13 11:33:36;;;;;;;7.70;3.57;;;15.00;99.90;;;;;;6340149;22;20173;-72
2022/10/13 11:36:42;;;;;;;6.93;3.70;;;15.00;99.90;;;;;;6339952;22;20702;-69
2022/10/13 11:39:39;;;;;;;5.23;2.90;;;15.00;99.90;;;;;;6327292;22;20172;-69
2022/10/13 11:42:19;;;;;;;3.90;2.70;;;15.00;99.90;;;;;;6339423;22;20689;-75
2022/10/13 11:44:53;;;;;;;7.13;4.03;;;14.90;99.90;;;;;;6339436;22;20211;-73
2022/10/13 11:47:42;;;;;;;6.67;3.03;;;15.10;99.90;;;;;;6340032;22;20255;-70
2022/10/13 11:50:20;;;;;;;6.10;3.13;;;15.20;99.90;;;;;;6340031;22;20173;-67
2022/10/13 11:53:10;;;;;;;8.13;3.30;;;15.20;99.90;;;;;;6339452;22;20183;-74
2022/10/13 11:55:48;;;;;;;6.77;3.10;;;15.50;99.90;;;;;;6339231;22;20226;-70
2022/10/13 11:58:17;;;;;;;9.37;4.27;;;15.80;99.90;;;;;;6339356;22;20625;-70
2022/10/13 12:00:55;;;;;;;6.53;3.67;;;15.80;99.90;;;;;;6339485;22;20199;-73
2022/10/13 12:03:26;;;;;;;6.93;3.53;;;16.00;99.90;;;;;;6339781;22;20512;-74
2022/10/13 12:05:55;;;;;;;7.33;3.53;;;16.10;99.90;;;;;;6339950;22;20232;-72
2022/10/13 12:08:22;;;;;;;6.80;3.40;;;16.30;99.90;;;;;;6339995;22;20187;-71
2022/10/13 12:10:56;;;;;;;7.87;3.60;;;16.60;99.90;;;;;;6339009;22;20199;-75
2022/10/13 12:13:25;;;;;;;6.77;3.87;;;16.40;99.90;;;;;;6339194;22;20261;-70
2022/10/13 12:15:59;;;;;;;7.53;3.53;;;16.60;99.90;;;;;;6339046;22;20260;-71
2022/10/13 12:18:28;;;;;;;6.03;3.43;;;16.70;99.90;;;;;;6339620;22;20222;-71
2022/10/13 12:20:57;;;;;;;7.77;3.53;;;16.90;99.90;;;;;;6339958;22;20201;-72
2022/10/13 12:23:25;;;;;;;6.27;3.80;;;16.90;99.90;;;;;;6340001;22;20173;-74
2022/10/13 12:25:57;;;;;;;7.40;3.23;;;16.70;99.90;;;;;;6339697;22;20216;-71
2022/10/13 12:28:25;;;;;;;6.07;3.50;;;16.80;99.90;;;;;;6339466;22;20215;-69
2022/10/13 12:30:53;;;;;;;5.37;3.17;;;16.80;99.90;;;;;;6339875;22;20524;-70
2022/10/13 12:33:26;;;;;;;6.27;3.50;;;16.60;99.90;;;;;;6339838;22;20180;-68
2022/10/13 12:35:52;;;;;;;7.53;3.70;;;16.70;99.90;;;;;;6339177;22;20259;-71
2022/10/13 12:38:22;;;;;;;6.57;3.10;;;17.00;99.90;;;;;;6339214;22;20185;-70
2022/10/13 12:40:50;;;;;;;6.67;3.70;;;17.10;99.90;;;;;;6340175;22;20194;-71
2022/10/13 12:43:23;;;;;;;7.20;3.90;;;17.00;99.90;;;;;;6339774;22;20173;-71
2022/10/13 12:45:51;;;;;;;6.97;3.20;;;17.20;99.90;;;;;;6339389;22;20201;-71
2022/10/13 12:48:31;;;;;;;5.73;3.20;;;17.20;99.90;;;;;;6339414;22;20173;-71
2022/10/13 12:51:10;;;;;;;6.93;3.27;;;17.00;99.90;;;;;;6339232;22;20193;-70
2022/10/13 12:53:38;;;;;;;6.60;3.53;;;17.10;99.90;;;;;;6339141;22;20177;-70
2022/10/13 12:56:06;;;;;;;6.50;3.43;;;17.20;99.90;;;;;;6339260;22;20185;-71
2022/10/13 12:58:36;;;;;;;7.90;3.60;;;17.20;99.90;;;;;;6339265;22;20712;-71
2022/10/13 13:01:27;;;;;;;7.00;3.67;;;17.40;99.90;;;;;;6339040;22;20692;-71
2022/10/13 13:03:56;;;;;;;7.23;3.77;;;17.40;99.90;;;;;;6338699;22;20617;-71
2022/10/13 13:06:36;;;;;;;5.95;3.40;;;17.30;99.90;;;;;;6339556;22;20235;-71
2022/10/13 13:09:30;;;;;;;5.63;3.70;;;17.30;99.90;;;;;;6339528;22;20208;-71
2022/10/13 13:12:23;;;;;;;7.80;3.47;;;17.10;99.90;;;;;;6339201;22;20272;-71
2022/10/13 13:14:53;;;;;;;8.80;3.67;;;17.10;99.90;;;;;;6302664;22;20495;-71
2022/10/13 13:17:31;;;;;;;6.87;4.07;;;17.00;99.90;;;;;;6339092;22;20184;-71
2022/10/13 13:19:58;;;;;;;8.10;4.17;;;16.90;99.90;;;;;;6338837;22;20252;-72
2022/10/13 13:22:25;;;;;;;8.83;3.63;;;16.80;99.90;;;;;;6338644;22;20200;-71
2022/10/13 13:24:52;;;;;;;5.63;3.43;;;16.40;99.90;;;;;;6338885;22;20517;-72
2022/10/13 13:27:24;;;;;;;6.40;3.70;;;16.20;99.90;;;;;;6339117;22;20173;-71
2022/10/13 13:29:53;;;;;;;8.83;4.00;;;16.00;99.90;;;;;;6338869;22;20690;-71
2022/10/13 13:32:21;;;;;;;9.43;4.70;;;16.00;99.90;;;;;;6339045;22;20198;-71
2022/10/13 13:34:48;;;;;;;7.43;4.23;;;16.00;99.90;;;;;;6339472;22;20180;-71
2022/10/13 13:37:24;;;;;;;6.57;4.50;;;16.00;99.90;;;;;;6339354;22;20173;-71
2022/10/13 13:39:51;;;;;;;7.47;3.73;;;15.90;99.90;;;;;;6339380;22;20255;-72
2022/10/13 13:42:18;;;;;;;8.80;4.63;;;15.80;99.90;;;;;;6338758;22;20200;-71
2022/10/13 13:44:45;;;;;;;6.87;4.00;;;15.60;99.90;;;;;;6338370;22;20288;-72
2022/10/13 13:47:19;;;;;;;6.87;3.80;;;15.50;99.90;;;;;;6338647;22;20180;-71
2022/10/13 13:49:46;;;;;;;6.47;3.83;;;15.50;99.90;;;;;;6338745;22;20179;-71
2022/10/13 13:52:13;;;;;;;5.77;3.63;;;15.50;99.90;;;;;;6338485;22;20229;-73
2022/10/13 13:54:40;;;;;;;6.20;3.60;;;15.50;99.90;;;;;;6338528;22;20177;-72
2022/10/13 13:57:07;;;;;;;6.97;3.87;;;15.40;99.90;;;;;;6338185;22;20255;-73
2022/10/13 13:59:34;;;;;;;7.90;3.80;;;15.30;99.90;;;;;;6338182;22;20179;-72
2022/10/13 14:02:01;;;;;;;7.03;3.93;;;15.30;99.90;;;;;;6337601;22;20193;-72
2022/10/13 14:04:29;;;;;;;10.40;4.10;;;15.10;99.90;;;;;;6337709;22;20173;-73
2022/10/13 14:06:56;;;;;;;6.60;4.43;;;15.20;99.90;;;;;;6337730;22;20652;-72
2022/10/13 14:09:23;;;;;;;9.23;4.53;;;15.20;99.90;;;;;;6338774;22;20177;-72
2022/10/13 14:11:50;;;;;;;7.90;4.00;;;15.30;99.90;;;;;;6338420;22;20193;-73
2022/10/13 14:14:17;;;;;;;6.97;4.10;;;15.20;99.90;;;;;;6338565;22;20177;-73
2022/10/13 14:16:44;;;;;;;7.93;4.60;;;15.30;99.90;;;;;;6338661;22;20177;-73
2022/10/13 14:19:10;;;;;;;6.47;4.17;;;15.40;99.90;;;;;;6339184;22;20257;-72
2022/10/13 14:21:38;;;;;;;8.37;4.47;;;15.50;99.90;;;;;;6338654;22;20280;-72
2022/10/13 14:24:06;;;;;;;7.47;4.00;;;15.50;99.90;;;;;;6338645;22;20508;-72
2022/10/13 14:26:33;;;;;;;7.33;4.23;;;15.50;99.90;;;;;;6338810;22;20292;-72
2022/10/13 14:29:00;;;;;;;9.67;4.63;;;15.50;99.90;;;;;;6338365;22;20264;-73
2022/10/13 14:31:26;;;;;;;6.67;4.17;;;15.50;99.90;;;;;;6338552;22;20204;-72
2022/10/13 14:33:53;;;;;;;6.87;4.37;;;15.60;99.90;;;;;;6338203;22;20174;-72
2022/10/13 14:36:20;;;;;;;7.00;4.33;;;15.70;99.90;;;;;;6338726;22;20174;-74
2022/10/13 14:38:50;;;;;;;6.90;4.40;;;15.70;99.90;;;;;;6338568;22;20180;-72
2022/10/13 14:41:17;;;;;;;8.47;5.07;;;15.80;99.90;;;;;;6338768;22;20227;-72
2022/10/13 14:43:44;;;;;;;6.70;4.33;;;15.80;99.90;;;;;;6338199;22;20191;-72
2022/10/13 14:46:12;;;;;;;10.43;4.10;;;15.80;99.90;;;;;;6338103;22;20215;-72
2022/10/13 14:48:39;;;;;;;6.47;4.07;;;15.80;99.90;;;;;;6338742;22;20173;-71
2022/10/13 14:51:06;;;;;;;7.87;3.60;;;15.70;99.90;;;;;;6338371;22;20673;-71
2022/10/13 14:53:34;;;;;;;8.03;4.20;;;15.70;99.90;;;;;;6338812;22;20265;-71
2022/10/13 14:56:04;;;;;;;9.27;4.57;;;15.70;99.90;;;;;;6338509;22;20173;-72
2022/10/13 14:58:31;;;;;;;7.57;4.00;;;15.70;99.90;;;;;;6338556;22;20177;-71
2022/10/13 15:00:57;;;;;;;7.50;3.73;;;15.80;99.90;;;;;;6338672;22;20199;-71
2022/10/13 15:03:26;;;;;;;12.67;4.00;;;15.80;99.90;;;;;;6338082;22;20184;-71
2022/10/13 15:05:53;;;;;;;8.50;4.37;;;15.80;99.90;;;;;;6338625;22;20204;-71
2022/10/13 15:08:20;;;;;;;8.83;4.17;;;15.70;99.90;;;;;;6338068;22;20207;-71
2022/10/13 15:10:47;;;;;;;6.20;3.97;;;15.70;99.90;;;;;;6338323;22;20673;-71
2022/10/13 15:13:15;;;;;;;6.93;3.50;;;15.70;99.90;;;;;;6338504;22;20180;-72
2022/10/13 15:15:46;;;;;;;6.43;3.93;;;15.70;99.90;;;;;;6338202;22;20173;-71
2022/10/13 15:18:13;;;;;;;6.70;3.10;;;15.50;99.90;;;;;;6338638;22;20177;-71
2022/10/13 15:20:45;;;;;;;5.27;2.63;;;15.40;99.90;;;;;;6338392;22;20197;-71
2022/10/13 15:23:12;;;;;;;4.97;2.50;;;15.30;99.90;;;;;;6338319;22;20177;-72
2022/10/13 15:25:45;;;;;;;3.87;2.57;;;15.30;99.90;;;;;;6337813;22;20510;-72
2022/10/13 15:28:11;;;;;;;6.63;2.73;;;15.20;99.90;;;;;;6337412;22;20182;-71
2022/10/13 15:30:40;;;;;;;5.20;2.53;;;15.20;99.90;;;;;;6337317;22;20255;-71
2022/10/13 15:33:06;;;;;;;4.23;2.47;;;15.20;99.90;;;;;;6337502;22;20328;-72
2022/10/13 15:35:33;;;;;;;3.40;2.10;;;15.20;99.90;;;;;;6337863;22;20181;-71
2022/10/13 15:38:00;;;;;;;3.03;1.87;;;15.30;99.90;;;;;;6337589;22;20630;-71
2022/10/13 15:40:27;;;;;;;4.13;2.57;;;15.30;99.90;;;;;;6338391;22;20193;-71
2022/10/13 15:42:53;;;;;;;6.07;3.03;;;15.20;99.90;;;;;;6338202;22;20693;-72
2022/10/13 15:45:20;;;;;;;3.93;2.80;;;15.10;99.90;;;;;;6338892;22;20201;-71
2022/10/13 15:47:51;;;;;;;5.20;2.53;;;15.00;99.90;;;;;;6340149;22;20587;-72
2022/10/13 15:50:18;;;;;;;3.10;2.30;;;15.00;99.90;;;;;;6339881;22;20173;-72
2022/10/13 15:52:45;;;;;;;4.13;2.17;;;15.00;99.90;;;;;;6339521;22;20178;-71
2022/10/13 15:55:12;;;;;;;5.13;2.57;;;15.00;99.90;;;;;;6339604;22;20256;-72
2022/10/13 15:57:40;;;;;;;9.70;2.03;;;15.00;99.90;;;;;;6340225;22;20181;-71
2022/10/13 16:00:09;;;;;;;4.40;2.27;;;14.90;99.90;;;;;;6339574;22;20494;-71
2022/10/13 16:02:36;;;;;;;6.03;2.20;;;14.80;99.90;;;;;;6339755;22;20173;-71
2022/10/13 16:05:04;;;;;;;3.53;1.97;;;14.80;99.90;;;;;;6340347;22;20196;-72
2022/10/13 16:07:31;;;;;;;3.47;2.00;;;14.80;99.90;;;;;;6336996;22;20283;-73
2022/10/13 16:09:58;;;;;;;3.87;2.00;;;14.90;99.90;;;;;;6339961;22;20195;-74
2022/10/13 16:12:25;;;;;;;3.63;2.30;;;14.80;99.90;;;;;;6339645;22;20275;-79
2022/10/13 16:14:52;;;;;;;3.53;2.20;;;14.80;99.90;;;;;;6339403;22;20260;-76
2022/10/13 16:17:19;;;;;;;3.80;2.57;;;14.90;99.90;;;;;;6339844;22;20177;-80
2022/10/13 16:19:46;;;;;;;3.83;2.23;;;14.80;99.90;;;;;;6340317;22;20260;-75
2022/10/13 16:22:14;;;;;;;4.50;2.33;;;14.80;99.90;;;;;;6339845;22;20695;-75
2022/10/13 16:24:41;;;;;;;3.90;2.17;;;14.70;99.90;;;;;;6339597;22;20177;-74
2022/10/13 16:27:08;;;;;;;6.23;2.50;;;14.60;99.90;;;;;;6339003;22;20665;-73
2022/10/13 16:29:35;;;;;;;3.97;2.40;;;14.60;99.90;;;;;;6332639;22;20259;-75
2022/10/13 16:32:02;;;;;;;4.97;2.10;;;14.50;99.90;;;;;;6337076;22;20232;-77
2022/10/13 16:34:29;;;;;;;2.90;1.90;;;14.50;99.90;;;;;;6338170;22;20173;-75
2022/10/13 16:36:56;;;;;;;3.60;2.23;;;14.50;99.90;;;;;;6336857;22;20177;-74
2022/10/13 16:39:25;;;;;;;4.10;2.13;;;14.50;99.90;;;;;;6337812;22;20183;-75
2022/10/13 16:41:52;;;;;;;2.33;1.80;;;14.50;99.90;;;;;;6337946;22;20215;-77
2022/10/13 16:44:19;;;;;;;4.33;2.30;;;14.50;99.90;;;;;;6337345;22;20181;-72
2022/10/13 16:46:48;;;;;;;3.87;2.53;;;14.50;99.90;;;;;;6336599;22;20215;-78
2022/10/13 16:49:15;;;;;;;3.57;2.40;;;14.40;99.90;;;;;;6337935;22;20181;-74
2022/10/13 16:51:43;;;;;;;3.47;2.30;;;14.50;99.90;;;;;;6336701;22;20197;-69
2022/10/13 16:54:10;;;;;;;6.23;2.50;;;14.40;99.90;;;;;;6337566;22;20252;-75
2022/10/13 16:56:38;;;;;;;7.43;2.80;;;14.40;99.90;;;;;;6336736;22;20173;-75
2022/10/13 16:59:07;;;;;;;4.63;2.60;;;14.40;99.90;;;;;;6336987;22;20549;-77
2022/10/13 17:01:35;;;;;;;6.23;2.40;;;14.40;99.90;;;;;;6337068;22;20197;-71
2022/10/13 17:04:02;;;;;;;4.30;2.60;;;14.40;99.90;;;;;;6337872;22;20180;-70
2022/10/13 17:06:30;;;;;;;4.33;2.90;;;14.50;99.90;;;;;;6336938;22;20521;-75
2022/10/13 17:08:58;;;;;;;6.40;3.00;;;14.50;99.90;;;;;;6337783;22;20641;-71
2022/10/13 17:11:27;;;;;;;4.27;2.40;;;14.50;99.90;;;;;;6337949;22;20267;-70
2022/10/13 17:13:56;;;;;;;3.67;2.73;;;14.50;99.90;;;;;;6337439;22;20256;-69
2022/10/13 17:16:23;;;;;;;5.87;2.80;;;14.50;99.90;;;;;;6337097;22;20255;-69
2022/10/13 17:18:50;;;;;;;5.83;2.63;;;14.50;99.90;;;;;;6337333;22;20266;-69
2022/10/13 17:21:18;;;;;;;3.93;2.80;;;14.50;99.90;;;;;;6337233;22;20205;-67
2022/10/13 17:23:45;;;;;;;4.67;2.47;;;14.50;99.90;;;;;;6337071;22;20177;-72
2022/10/13 17:26:13;;;;;;;6.50;2.77;;;14.60;99.90;;;;;;6338790;22;20235;-71
2022/10/13 17:28:42;;;;;;;6.70;2.87;;;14.60;99.90;;;;;;6339384;22;20179;-71
2022/10/13 17:31:13;;;;;;;9.23;2.97;;;14.60;99.90;;;;;;6339012;22;20194;-70
2022/10/13 17:33:41;;;;;;;4.73;2.53;;;14.60;99.90;;;;;;6339040;22;20224;-72
2022/10/13 17:36:11;;;;;;;5.23;2.63;;;14.60;99.90;;;;;;6339289;22;20264;-71
2022/10/13 17:38:38;;;;;;;6.57;2.80;;;14.60;99.90;;;;;;6339247;22;20173;-71
2022/10/13 17:41:07;;;;;;;5.47;3.03;;;14.60;99.90;;;;;;6339206;22;20199;-72
2022/10/13 17:43:35;;;;;;;4.73;3.17;;;14.60;99.90;;;;;;6339072;22;20185;-71
2022/10/13 17:46:12;;;;;;;5.93;3.00;;;14.60;99.90;;;;;;6338794;22;20197;-71
2022/10/13 17:48:39;;;;;;;6.17;3.23;;;14.60;99.90;;;;;;6339223;22;20252;-72
2022/10/13 17:51:08;;;;;;;5.63;3.10;;;14.60;99.90;;;;;;6339205;22;20372;-70
2022/10/13 17:53:35;;;;;;;5.27;3.50;;;14.60;99.90;;;;;;6339130;22;20347;-70
2022/10/13 17:56:02;;;;;;;5.10;3.47;;;14.70;99.90;;;;;;6339116;22;20173;-71
2022/10/13 17:58:29;;;;;;;5.70;2.97;;;14.70;99.90;;;;;;6338677;22;20637;-72
2022/10/13 18:00:57;;;;;;;6.83;3.57;;;14.60;99.90;;;;;;6338932;22;20275;-72
2022/10/13 18:03:25;;;;;;;7.40;3.53;;;14.70;99.90;;;;;;6339008;22;20542;-71
2022/10/13 18:05:52;;;;;;;6.53;3.10;;;14.70;99.90;;;;;;6338922;22;20173;-72
2022/10/13 18:08:20;;;;;;;5.23;3.47;;;14.80;99.90;;;;;;6338563;22;20179;-72
2022/10/13 18:10:46;;;;;;;6.87;2.93;;;14.90;99.90;;;;;;6338783;22;20277;-72
2022/10/13 18:13:13;;;;;;;8.00;3.67;;;14.90;99.90;;;;;;6338309;22;20177;-72
2022/10/13 18:15:41;;;;;;;5.47;3.40;;;15.00;99.90;;;;;;6338892;22;20252;-72
2022/10/13 18:18:07;;;;;;;4.23;3.10;;;15.00;99.90;;;;;;6338984;22;20543;-72
2022/10/13 18:20:38;;;;;;;4.33;3.30;;;15.00;99.90;;;;;;6339003;22;20517;-71
2022/10/13 18:23:05;;;;;;;4.90;3.10;;;15.00;99.90;;;;;;6338629;22;20238;-72
2022/10/13 18:25:35;;;;;;;6.37;3.37;;;15.00;99.90;;;;;;6338415;22;20173;-72
2022/10/13 18:28:02;;;;;;;5.77;3.70;;;14.90;99.90;;;;;;6339047;22;20201;-72
2022/10/13 18:30:29;;;;;;;5.97;3.67;;;14.90;99.90;;;;;;6338318;22;20279;-72
2022/10/13 18:32:55;;;;;;;5.27;3.57;;;15.00;99.90;;;;;;6337450;22;20173;-71
2022/10/13 18:35:22;;;;;;;7.07;3.70;;;15.00;99.90;;;;;;6336302;22;20252;-72
2022/10/13 18:37:51;;;;;;;5.23;3.43;;;14.90;99.90;;;;;;6334414;22;20234;-71
2022/10/13 18:40:18;;;;;;;6.23;3.50;;;14.90;99.90;;;;;;6334234;22;20173;-69
2022/10/13 18:42:47;;;;;;;7.00;3.40;;;14.80;99.90;;;;;;6337589;22;20173;-69
2022/10/13 18:45:14;;;;;;;4.80;3.20;;;14.80;99.90;;;;;;6336845;22;20192;-70
2022/10/13 18:47:41;;;;;;;5.03;3.80;;;14.90;99.90;;;;;;6337933;22;20204;-70
2022/10/13 18:50:09;;;;;;;5.53;3.60;;;14.90;99.90;;;;;;6337482;22;20173;-70
2022/10/13 18:52:36;;;;;;;5.93;3.67;;;14.90;99.90;;;;;;6337081;22;20256;-70
2022/10/13 18:55:04;;;;;;;7.10;4.03;;;14.90;99.90;;;;;;6337096;22;20199;-70
2022/10/13 18:57:31;;;;;;;7.93;4.33;;;14.90;99.90;;;;;;6337907;22;20173;-70
2022/10/13 18:59:58;;;;;;;7.03;3.97;;;14.90;99.90;;;;;;6337658;22;20173;-70
2022/10/13 19:02:25;;;;;;;5.83;3.90;;;14.90;99.90;;;;;;6338100;22;20197;-70
2022/10/13 19:04:52;;;;;;;6.00;3.80;;;15.00;99.90;;;;;;6338392;22;20259;-70
2022/10/13 19:07:18;;;;;;;6.93;3.80;;;15.00;99.90;;;;;;6337693;22;20207;-69
2022/10/13 19:09:46;;;;;;;6.53;4.20;;;15.00;99.90;;;;;;6338181;22;20186;-72
2022/10/13 19:12:14;;;;;;;6.00;4.23;;;15.10;99.90;;;;;;6337635;22;20204;-70
2022/10/13 19:14:41;;;;;;;7.10;3.83;;;15.10;99.90;;;;;;6337886;22;20634;-70
2022/10/13 19:17:07;;;;;;;5.63;3.60;;;15.00;99.90;;;;;;6337940;22;20174;-70
2022/10/13 19:19:35;;;;;;;6.23;3.60;;;14.90;99.90;;;;;;6338577;22;20204;-70
2022/10/13 19:22:01;;;;;;;7.07;4.17;;;14.80;99.90;;;;;;6339050;22;20197;-70
2022/10/13 19:24:28;;;;;;;6.03;3.77;;;14.80;99.90;;;;;;6338272;22;20636;-70
2022/10/13 19:26:56;;;;;;;8.90;4.50;;;14.90;99.90;;;;;;6338272;22;20208;-70
2022/10/13 19:29:24;;;;;;;6.03;4.13;;;14.70;99.90;;;;;;6339786;22;20564;-70
2022/10/13 19:31:51;;;;;;;8.60;4.73;;;14.80;99.90;;;;;;6339372;22;20193;-69
2022/10/13 19:34:17;;;;;;;8.03;3.93;;;14.90;99.90;;;;;;6339546;22;20252;-70
2022/10/13 19:36:46;;;;;;;6.27;4.10;;;15.10;99.90;;;;;;6339226;22;20638;-70
2022/10/13 19:39:15;;;;;;;6.37;4.03;;;15.10;99.90;;;;;;6339256;22;20180;-70
2022/10/13 19:41:43;;;;;;;6.47;4.50;;;15.00;99.90;;;;;;6338863;22;20691;-70
2022/10/13 19:44:10;;;;;;;6.77;3.80;;;15.10;99.90;;;;;;6339231;22;20230;-70